1990 VINCENT (1990056S11125)


On this page: IBTrACS data - Map and Plots - Positions - Intensities - Original source data

Summary

Start Feb 24
End Mar 6
Basin SI
LMI 78 kt
Sources jtwc_sh
bom
neumann
In WMO? Yes
Previous storm 1990 PENI (SP)
Previous in basin 1990 CEZERA (SI)
Concurrent storms 1990 VINCENT (SI)
1990 EDISOANA (SI)
1990 GREG (SP)
1990 EDISOANA (SI)
1990 HILDA (SP)
1990 GREGOARA (SI)
1990 FELANA (SI)
Next in basin 1990 EDISOANA (SI)
Next storm 1990 EDISOANA (SI)

top of page IBTrACS Data: File Access

top of page HURSAT Data: File Access

Image of storm

top of page Plots:

Map of storm track will not appear if FTP is down
Time series of cyclone Maximum Sustained Wind will not appear if FTP is down
Time series of cyclone Minimum Central Pressure will not appear if FTP is down

top of page Track Data:Position

jtwc_sh bom neumann
Date Lat Lon Lat Lon Lat Lon
1990-02-24 18:00:00 -10.8 125.2
1990-02-25 00:00:00 -10.8 125.2 -10.9 125.1
1990-02-25 06:00:00 -11.0 124.8 -11.0 124.8
1990-02-25 12:00:00 -11.3 124.4 -11.3 124.4
1990-02-25 18:00:00 -11.6 124.0 -11.6 124.0
1990-02-26 00:00:00 -11.9 123.6 -11.9 123.6
1990-02-26 06:00:00 -12.2 123.2 -12.2 123.2
1990-02-26 12:00:00 -12.5 122.8 -12.5 122.8
1990-02-26 18:00:00 -12.8 122.4 -12.8 122.4
1990-02-27 00:00:00 -13.2 122.0 -13.2 122.0
1990-02-27 06:00:00 -13.6 121.7 -13.6 121.7
1990-02-27 12:00:00 -16.8 120.3 -16.8 120.3
1990-02-27 18:00:00 -16.8 120.3 -16.8 120.3
1990-02-28 00:00:00 -16.8 120.2 -16.8 120.2
1990-02-28 06:00:00 -16.9 120.1 -16.9 120.1
1990-02-28 12:00:00 -16.9 120.0 -16.9 120.0
1990-02-28 18:00:00 -17.1 119.7 -17.1 119.7
1990-03-01 00:00:00 -17.1 119.7 -17.1 119.7
1990-03-01 06:00:00 -17.6 118.9 -17.6 118.9
1990-03-01 12:00:00 -18.0 117.8 -18.0 117.8
1990-03-01 18:00:00 -18.0 116.3 -18.0 116.3
1990-03-02 00:00:00 -17.7 114.9 -17.0 114.6 -17.7 114.9
1990-03-02 06:00:00 -17.6 113.8 -17.4 114.1 -17.6 113.8
1990-03-02 12:00:00 -17.8 113.2 -17.8 113.4 -17.8 113.2
1990-03-02 18:00:00 -18.2 112.8 -18.1 113.1 -18.2 112.8
jtwc_sh bom neumann
1990-03-03 00:00:00 -18.7 112.5 -18.5 112.8 -18.7 112.5
1990-03-03 06:00:00 -19.3 112.1 -19.2 112.0 -19.3 112.1
1990-03-03 12:00:00 -19.9 111.6 -19.6 111.5 -19.9 111.6
1990-03-03 18:00:00 -20.6 111.1 -20.4 111.0 -20.6 111.1
1990-03-04 00:00:00 -21.2 110.6 -21.2 110.6 -21.2 110.6
1990-03-04 06:00:00 -21.9 110.2 -21.9 110.1 -21.9 110.2
1990-03-04 12:00:00 -22.8 109.6 -23.2 109.7 -22.8 109.6
1990-03-04 18:00:00 -23.9 109.0 -24.4 108.9 -23.9 109.0
1990-03-05 00:00:00 -25.3 108.7 -25.3 108.9 -25.3 108.7
1990-03-05 06:00:00 -27.1 108.8 -27.1 109.0 -27.1 108.8
1990-03-05 12:00:00 -29.6 109.9 -29.4 109.5 -29.6 109.9
1990-03-05 18:00:00 -32.1 112.3 -32.3 110.5 -32.1 112.3
1990-03-06 00:00:00 -34.2 115.7 -34.8 113.0 -34.2 115.7
1990-03-06 06:00:00 -36.7 116.5
1990-03-06 12:00:00 -39.3 123.0

top of pageTrack Data:Intensity

jtwc_sh bom neumann
Date Wind Pres Wind Pres Wind Pres
1990-02-24 18:00:00 15.
1990-02-25 00:00:00 15. 15.
1990-02-25 06:00:00 15. 15.
1990-02-25 12:00:00 15. 15.
1990-02-25 18:00:00 15. 15.
1990-02-26 00:00:00 15. 15.
1990-02-26 06:00:00 15. 15.
1990-02-26 12:00:00 15. 15.
1990-02-26 18:00:00 20. 20.
1990-02-27 00:00:00 20. 20.
1990-02-27 06:00:00 20. 20.
1990-02-27 12:00:00 20. 20.
1990-02-27 18:00:00 20. 20.
1990-02-28 00:00:00 25. 25.
1990-02-28 06:00:00 25. 25.
1990-02-28 12:00:00 30. 30.
1990-02-28 18:00:00 30. 30.
1990-03-01 00:00:00 30. 30.
1990-03-01 06:00:00 30. 30.
1990-03-01 12:00:00 30. 30.
1990-03-01 18:00:00 30. 30.
1990-03-02 00:00:00 30. 35. 997. 30.
1990-03-02 06:00:00 35. 39. 995. 35.
1990-03-02 12:00:00 35. 41. 993. 35.
1990-03-02 18:00:00 40. 45. 991. 40.
jtwc_sh bom neumann
1990-03-03 00:00:00 45. 56. 984. 45.
1990-03-03 06:00:00 50. 60. 980. 50.
1990-03-03 12:00:00 55. 66. 976. 55.
1990-03-03 18:00:00 60. 72. 971. 60.
1990-03-04 00:00:00 65. 78. 966. 65.
1990-03-04 06:00:00 65. 78. 966. 65.
1990-03-04 12:00:00 70. 78. 966. 70.
1990-03-04 18:00:00 70. 70. 972. 70.
1990-03-05 00:00:00 65. 66. 975. 65.
1990-03-05 06:00:00 55. 64. 978. 55.
1990-03-05 12:00:00 45. 60. 980. 45.
1990-03-05 18:00:00 40. 56. 984. 40.
1990-03-06 00:00:00 40. 45. 991. 40.
1990-03-06 06:00:00 35. 997.
1990-03-06 12:00:00 31. 1000.

top of page Links to source data

Source Source file Format
jtwc_sh bsh171990.txt ATCF
bom IDCKMSTM0S.csv:Line=17838:VINCENT CSV file (from Excel file)
neumann tracks.sh:Storm=886:VINCENT:BSH171990:JTWC&BM787 HURDAT